Terminal Aerodrome Forecast
Issued by NWS

Home | Current Version | Previous Version | Text Only | Print | Product List | Glossary On
Versions: 1 2 3 4 5 6 7 8 9 10 11 12
795
FTUS46 KEKA 192339
TAFCEC
TAF
KCEC 192339Z 2000/2024 32018G28KT P6SM FEW020
     FM200300 34012G20KT P6SM FEW250
     FM200800 15005KT P6SM SKC
     FM201800 29010KT P6SM SCT150=

USA.gov is the U.S. government's official web portal to all federal, state and local government web resources and services.